PPR-pyyntö

Ennakkolupa on pakollinen lentoonlähtöjä ja laskuja varten. Pyydä ennakkolupa tästä.

Laskukierrosvaraus

Tee ensin PPR-pyyntö, sitten vasta laskukierrosvaraus. Hinta 5 € / 15 min.

Aerodrome Info

Updated 22 NOV 2017 06:55 LT

  • Some asphalt damage south of RWY 36 threshold.
  • Water pools on aprons and taxiways.
  • Preferred RWY 36

Contact duty officer at +358 20 7545 129 for more information.

Weather


Helsinki Malmi lentokenttä
AWS ILHF 221420Z AUTO 08004KT 5000 -SHSN BKN004 OVC014 00/00 Q1015=

METAR EFHK 221420Z 07008KT 9999 -SNRA SCT004 BKN005 00/M00 Q1015 BECMG FM1445 2000 SN=
TAF EFHK 221134Z 2212/2312 06008KT 9999 BKN005 TEMPO 2212/2214 2500 -SHSN BKN004 SCT020CB BECMG 2214/2216 BKN020 TEMPO 2214/2221 2500 -SHSN BKN005 SCT020CB BECMG 2221/2223 12013KT BECMG 2305/2307 12020G31KT 2500 -SN BKN010 TEMPO 2309/2312 1400 SNRA VV008=

Helsinki-Malmin lentoasema

Tervetuloa Helsinki-Malmin lentokentälle

Malmin lentokenttäyhdistys ry on yleishyödyllinen yhdistys, joka toimii Suomen vilkkaimman yleisilmailukentän, Helsinki-Malmin operaattorina. Yhdistyksen toiminnassa ovat mukana kentällä toimivat yhteisöt sekä suuri joukko yleisilmailijoita.

Malmin lentokentän toiminta rahoitetaan jäsen- ja kausikorttimaksuin. Ole mukana jatkamassa Malmin lentotoimintaa ja liity jäseneksi!